Terminal Aerodrome Forecast
Issued by NWS

Current Version | Previous Version | Text Only | Print | Product List | Glossary On
Versions: 1 2 3 4 5 6 7 8 9 10 11 12 13 14 15 16 17 18
000
FTUS44 KLIX 222100 AAA
TAFGPT
TAF AMD
KGPT 222115Z 2221/2318 16008KT 5SM BR BKN008
      TEMPO 2221/2224 2SM BR OVC005
     FM230100 18008KT 2SM BR BKN005
      TEMPO 2310/2313 1SM BR BKN002
     FM231300 19005KT P6SM VCTS OVC015CB
     FM231700 16009KT 3SM +SHRA VCTS OVC025CB=

USA.gov is the U.S. government's official web portal to all federal, state and local government web resources and services.